createdAt,value
2018-04-23T00:01:26.122Z,17.90
2018-04-23T00:06:28.787Z,17.90
2018-04-23T00:11:32.653Z,17.80
2018-04-23T00:16:37.110Z,17.80
2018-04-23T00:21:40.009Z,17.70
2018-04-23T00:26:46.403Z,17.70
2018-04-23T00:31:49.450Z,17.60
2018-04-23T00:41:59.066Z,17.50
2018-04-23T00:47:02.202Z,17.50
2018-04-23T00:52:04.882Z,17.40
2018-04-23T00:57:10.323Z,17.40
2018-04-23T01:02:13.609Z,17.30
2018-04-23T01:07:17.071Z,17.30
2018-04-23T01:12:20.602Z,17.30
2018-04-23T01:17:23.696Z,17.20
2018-04-23T01:22:29.774Z,17.10
2018-04-23T01:27:32.708Z,17.10
2018-04-23T01:32:37.142Z,17.00
2018-04-23T01:37:40.590Z,16.90
2018-04-23T01:42:43.199Z,16.90
2018-04-23T01:47:49.108Z,16.80
2018-04-23T01:52:52.556Z,16.60
2018-04-23T01:57:56.178Z,16.60
2018-04-23T02:02:59.097Z,16.60
2018-04-23T02:08:02.601Z,16.50
2018-04-23T02:13:05.289Z,16.40
2018-04-23T02:18:08.117Z,16.40
2018-04-23T02:23:11.618Z,16.30
2018-04-23T02:28:14.605Z,16.30
2018-04-23T02:33:17.297Z,16.20
2018-04-23T02:38:21.793Z,16.20
2018-04-23T02:43:24.537Z,16.10
2018-04-23T02:48:27.237Z,16.10
2018-04-23T02:53:30.860Z,16.00
2018-04-23T02:58:36.914Z,16.00
2018-04-23T03:03:40.419Z,15.90
2018-04-23T03:08:44.410Z,15.90
2018-04-23T03:13:47.160Z,15.80
2018-04-23T03:18:50.758Z,15.80
2018-04-23T03:23:54.237Z,15.70
2018-04-23T03:28:57.292Z,15.70
2018-04-23T03:34:00.300Z,15.70
2018-04-23T03:39:04.865Z,15.70
2018-04-23T03:44:08.307Z,15.70
2018-04-23T03:49:11.414Z,15.70
2018-04-23T03:54:14.870Z,15.70
2018-04-23T03:59:18.208Z,15.60
2018-04-23T04:04:21.079Z,15.70
2018-04-23T04:09:24.541Z,15.60
2018-04-23T04:14:52.312Z,15.60
2018-04-23T04:19:58.368Z,15.60
2018-04-23T04:25:03.429Z,15.60
2018-04-23T04:30:06.439Z,15.60
2018-04-23T04:35:12.514Z,15.60
2018-04-23T04:45:22.966Z,15.60
2018-04-23T04:50:25.700Z,15.60
2018-04-23T04:55:31.865Z,15.60
2018-04-23T05:00:35.427Z,15.60
2018-04-23T05:05:38.478Z,15.70
2018-04-23T05:10:41.674Z,15.70
2018-04-23T05:15:44.613Z,15.70
2018-04-23T05:20:48.161Z,15.70
2018-04-23T05:25:51.730Z,15.70
2018-04-23T05:30:54.448Z,15.80
2018-04-23T05:35:57.645Z,15.80
2018-04-23T05:41:03.983Z,15.90
2018-04-23T05:46:06.625Z,15.90
2018-04-23T05:51:10.084Z,15.90
2018-04-23T05:56:13.227Z,16.00
2018-04-23T06:06:24.496Z,16.00
2018-04-23T06:11:27.418Z,16.10
2018-04-23T06:16:30.468Z,16.20
2018-04-23T06:21:35.243Z,16.20
2018-04-23T06:26:38.219Z,16.30
2018-04-23T06:31:41.057Z,16.40
2018-04-23T06:36:44.679Z,16.50
2018-04-23T06:41:47.514Z,16.60
2018-04-23T06:46:51.151Z,16.70
2018-04-23T06:57:02.788Z,16.90
2018-04-23T07:02:05.752Z,17.00
2018-04-23T07:07:09.665Z,17.20
2018-04-23T07:12:13.679Z,17.50
2018-04-23T07:17:16.908Z,17.50
2018-04-23T07:22:20.433Z,17.80
2018-04-23T07:27:23.254Z,18.10
2018-04-23T07:32:29.388Z,18.60
2018-04-23T07:37:32.123Z,19.10
2018-04-23T07:42:34.987Z,19.50
2018-04-23T07:47:37.643Z,20.00
2018-04-23T07:52:40.970Z,20.40
2018-04-23T07:57:43.701Z,20.80
2018-04-23T08:02:48.809Z,21.60
2018-04-23T08:07:52.329Z,21.60
2018-04-23T08:12:54.878Z,21.90
2018-04-23T08:17:58.280Z,22.30
2018-04-23T08:23:01.062Z,22.60
2018-04-23T08:28:05.080Z,22.80
2018-04-23T08:33:08.117Z,22.90
2018-04-23T08:38:12.452Z,23.00
2018-04-23T08:43:15.661Z,23.10
2018-04-23T08:48:18.472Z,23.20
2018-04-23T08:53:21.158Z,23.40
2018-04-23T08:58:24.303Z,23.60
2018-04-23T09:03:27.183Z,23.80
2018-04-23T09:08:32.128Z,24.00
2018-04-23T09:13:36.382Z,24.20
2018-04-23T09:18:39.181Z,24.40
2018-04-23T09:23:43.054Z,24.60
2018-04-23T09:28:45.814Z,24.80
2018-04-23T09:33:49.229Z,24.80
2018-04-23T09:38:55.529Z,24.90
2018-04-23T09:43:59.008Z,25.00
2018-04-23T09:49:02.162Z,25.00
2018-04-23T09:54:05.702Z,25.10
2018-04-23T09:59:08.706Z,25.00
2018-04-23T10:04:12.582Z,25.00
2018-04-23T10:09:16.914Z,25.00
2018-04-23T10:14:20.220Z,25.00
2018-04-23T10:19:23.269Z,25.10
2018-04-23T10:24:26.343Z,25.10
2018-04-23T10:29:29.708Z,25.20
2018-04-23T10:34:33.136Z,25.30
2018-04-23T10:39:36.749Z,25.40
2018-04-23T10:44:41.098Z,25.60
2018-04-23T10:49:44.417Z,25.60
2018-04-23T10:54:47.511Z,25.70
2018-04-23T10:59:50.189Z,25.80
2018-04-23T11:04:54.539Z,25.90
2018-04-23T11:09:57.942Z,26.10
2018-04-23T11:15:01.754Z,26.40
2018-04-23T11:20:04.999Z,26.40
2018-04-23T11:25:08.039Z,26.50
2018-04-23T11:30:11.875Z,26.80
2018-04-23T11:35:14.812Z,27.00
2018-04-23T11:40:20.245Z,27.10
2018-04-23T11:45:23.905Z,27.30
2018-04-23T11:50:26.986Z,27.50
2018-04-23T11:55:30.433Z,27.60
2018-04-23T12:00:33.759Z,27.40
2018-04-23T12:05:37.427Z,27.10
2018-04-23T12:10:40.987Z,26.60
2018-04-23T12:15:43.949Z,26.00
2018-04-23T12:20:46.869Z,25.50
2018-04-23T12:25:50.531Z,25.10
2018-04-23T12:30:53.860Z,24.60
2018-04-23T12:35:56.656Z,24.30
2018-04-23T12:40:59.581Z,23.90
2018-04-23T12:46:02.711Z,23.70
2018-04-23T12:51:06.083Z,23.40
2018-04-23T12:56:08.832Z,23.30
2018-04-23T13:01:11.850Z,23.30
2018-04-23T13:06:14.879Z,23.30
2018-04-23T13:11:18.138Z,23.40
2018-04-23T13:16:21.009Z,23.40
2018-04-23T13:21:25.527Z,23.40
2018-04-23T13:26:28.441Z,23.30
2018-04-23T13:31:32.034Z,23.30
2018-04-23T13:36:35.725Z,23.30
2018-04-23T13:41:39.378Z,23.20
2018-04-23T13:46:45.672Z,23.20
2018-04-23T13:51:51.874Z,23.20
2018-04-23T13:56:56.497Z,23.20
2018-04-23T14:01:59.389Z,23.20
2018-04-23T14:12:13.055Z,23.20
2018-04-23T14:17:16.701Z,23.20
2018-04-23T14:22:20.310Z,23.10
2018-04-23T14:27:24.995Z,23.00
2018-04-23T14:32:28.001Z,23.00
2018-04-23T14:37:30.725Z,23.00
2018-04-23T14:42:33.947Z,22.90
2018-04-23T14:47:37.837Z,22.80
2018-04-23T14:52:41.663Z,22.80
2018-04-23T14:57:45.310Z,22.80
2018-04-23T15:02:48.552Z,22.70
2018-04-23T15:07:51.824Z,22.70
2018-04-23T15:12:54.873Z,22.70
2018-04-23T15:18:00.111Z,22.60
2018-04-23T15:23:06.298Z,22.60
2018-04-23T15:28:08.992Z,22.50
2018-04-23T15:33:12.617Z,22.50
2018-04-23T15:38:15.578Z,22.40
2018-04-23T15:43:19.781Z,22.20
2018-04-23T15:48:24.864Z,22.20
2018-04-23T15:53:27.598Z,22.10
2018-04-23T15:58:31.817Z,22.00
2018-04-23T16:08:42.746Z,21.90
2018-04-23T16:13:46.837Z,21.90
2018-04-23T16:18:49.536Z,21.80
2018-04-23T16:23:53.106Z,21.80
2018-04-23T16:28:56.212Z,21.80
2018-04-23T16:34:01.588Z,21.70
2018-04-23T16:39:04.761Z,21.70
2018-04-23T16:44:08.207Z,21.70
2018-04-23T16:49:11.847Z,21.60
2018-04-23T16:54:15.637Z,21.50
2018-04-23T16:59:18.394Z,21.40
2018-04-23T17:04:22.000Z,21.30
2018-04-23T17:09:24.735Z,21.20
2018-04-23T17:14:28.250Z,21.10
2018-04-23T17:19:32.170Z,21.00
2018-04-23T17:24:35.257Z,20.90
2018-04-23T17:29:39.121Z,20.80
2018-04-23T17:34:42.083Z,20.80
2018-04-23T17:39:49.434Z,20.70
2018-04-23T17:44:52.720Z,20.70
2018-04-23T17:49:58.929Z,20.60
2018-04-23T17:55:02.841Z,20.50
2018-04-23T18:00:05.626Z,20.50
2018-04-23T18:05:10.186Z,20.40
2018-04-23T18:10:13.594Z,20.20
2018-04-23T18:15:17.966Z,20.10
2018-04-23T18:20:25.014Z,20.00
2018-04-23T18:25:29.311Z,19.90
2018-04-23T18:30:32.888Z,19.90
2018-04-23T18:35:35.625Z,19.80
2018-04-23T18:40:40.675Z,19.70
2018-04-23T18:45:45.083Z,19.60
2018-04-23T18:50:49.369Z,19.50
2018-04-23T18:55:54.211Z,19.40
2018-04-23T19:01:00.922Z,19.30
2018-04-23T19:06:05.932Z,19.20
2018-04-23T19:11:10.818Z,19.20
2018-04-23T19:16:15.319Z,19.10
2018-04-23T19:21:20.897Z,19.00
2018-04-23T19:26:35.760Z,18.90
2018-04-23T19:31:40.301Z,18.80
2018-04-23T19:36:45.165Z,18.80
2018-04-23T19:41:51.590Z,18.70
2018-04-23T19:46:56.250Z,18.60
2018-04-23T19:52:01.482Z,18.50
2018-04-23T19:57:06.693Z,18.50
2018-04-23T20:02:14.893Z,18.40
2018-04-23T20:07:21.349Z,18.30
2018-04-23T20:12:28.285Z,18.20
2018-04-23T20:17:33.366Z,18.20
2018-04-23T20:22:44.189Z,18.10
2018-04-23T20:27:48.820Z,18.00
2018-04-23T20:32:53.068Z,18.00
2018-04-23T20:37:59.035Z,17.90
2018-04-23T20:43:04.350Z,17.90
2018-04-23T20:48:11.335Z,17.80
2018-04-23T20:53:18.948Z,17.80
2018-04-23T20:58:24.160Z,17.80
2018-04-23T21:03:30.139Z,17.70
2018-04-23T21:08:33.811Z,17.70
2018-04-23T21:13:37.682Z,17.60
2018-04-23T21:18:46.276Z,17.60
2018-04-23T21:23:50.922Z,17.50
2018-04-23T21:28:57.734Z,17.50
2018-04-23T21:34:02.244Z,17.40
2018-04-23T21:39:10.559Z,17.40
2018-04-23T21:44:16.270Z,17.30
2018-04-23T21:49:19.801Z,17.30
2018-04-23T21:54:26.777Z,17.30
2018-04-23T21:59:30.893Z,17.20
2018-04-23T22:04:36.948Z,17.10
2018-04-23T22:09:41.388Z,17.10
2018-04-23T22:14:46.608Z,17.10
2018-04-23T22:19:52.098Z,17.10
2018-04-23T22:25:00.368Z,17.10
2018-04-23T22:30:04.039Z,17.00
2018-04-23T22:35:07.803Z,17.00
2018-04-23T22:40:10.941Z,17.00
2018-04-23T22:45:18.767Z,17.00
2018-04-23T22:50:23.239Z,16.90
2018-04-23T22:55:28.113Z,16.90
2018-04-23T23:00:31.687Z,16.90
2018-04-23T23:05:37.701Z,16.80
2018-04-23T23:10:42.375Z,16.80
2018-04-23T23:15:49.787Z,16.80
2018-04-23T23:20:55.309Z,16.80
2018-04-23T23:26:00.743Z,16.80
2018-04-23T23:31:05.067Z,16.80
2018-04-23T23:41:16.027Z,16.70
2018-04-23T23:46:22.136Z,16.70
2018-04-23T23:51:30.609Z,16.60
2018-04-23T23:56:35.799Z,16.60
